createdAt,value
2023-02-27T00:00:24.424Z,101898.66
2023-02-27T00:02:52.482Z,101896.91
2023-02-27T00:05:20.186Z,101892.56
2023-02-27T00:07:47.490Z,101894.34
2023-02-27T00:10:14.947Z,101891.75
2023-02-27T00:12:42.685Z,101889.19
2023-02-27T00:15:13.057Z,101895.22
2023-02-27T00:17:40.564Z,101891.78
2023-02-27T00:20:11.284Z,101893.50
2023-02-27T00:22:39.542Z,101895.25
2023-02-27T00:25:07.986Z,101899.56
2023-02-27T00:27:35.390Z,101901.28
2023-02-27T00:30:05.253Z,101900.41
2023-02-27T00:32:32.487Z,101896.09
2023-02-27T00:34:59.733Z,101896.91
2023-02-27T00:37:27.670Z,101900.34
2023-02-27T00:39:54.855Z,101900.34
2023-02-27T00:42:22.282Z,101902.09
2023-02-27T00:44:49.471Z,101897.75
2023-02-27T00:47:16.937Z,101895.16
2023-02-27T00:49:44.221Z,101902.06
2023-02-27T00:52:11.359Z,101899.47
2023-02-27T00:54:38.597Z,101886.53
2023-02-27T00:57:05.868Z,101889.97
2023-02-27T00:59:33.135Z,101890.81
2023-02-27T01:02:00.403Z,101886.50
2023-02-27T01:04:27.697Z,101891.66
2023-02-27T01:06:54.865Z,101886.47
2023-02-27T01:09:22.145Z,101892.50
2023-02-27T01:11:49.330Z,101886.47
2023-02-27T01:14:16.883Z,101884.72
2023-02-27T01:16:44.173Z,101889.88
2023-02-27T01:19:11.310Z,101887.28
2023-02-27T01:21:38.436Z,101876.91
2023-02-27T01:24:05.791Z,101878.63
2023-02-27T01:26:32.938Z,101884.69
2023-02-27T01:29:00.115Z,101873.47
2023-02-27T01:31:28.187Z,101876.09
2023-02-27T01:33:55.604Z,101882.13
2023-02-27T01:36:22.766Z,101884.72
2023-02-27T01:38:49.983Z,101883.81
2023-02-27T01:41:17.414Z,101874.31
2023-02-27T01:43:59.661Z,101870.81
2023-02-27T01:46:29.002Z,101875.97
2023-02-27T01:49:16.449Z,101874.25
2023-02-27T01:51:50.730Z,101875.09
2023-02-27T01:54:20.520Z,101873.41
2023-02-27T01:56:48.441Z,101869.09
2023-02-27T01:59:16.172Z,101867.38
2023-02-27T02:01:44.126Z,101874.28
2023-02-27T02:04:26.547Z,101872.50
2023-02-27T02:07:03.006Z,101882.00
2023-02-27T02:09:31.217Z,101882.81
2023-02-27T02:11:59.272Z,101881.13
2023-02-27T02:14:26.698Z,101875.09
2023-02-27T02:17:09.042Z,101870.75
2023-02-27T02:20:07.468Z,101882.00
2023-02-27T02:22:58.736Z,101883.69
2023-02-27T02:25:44.671Z,101875.91
2023-02-27T02:28:38.645Z,101875.00
2023-02-27T02:31:43.367Z,101880.13
2023-02-27T02:34:26.177Z,101882.72
2023-02-27T02:37:02.254Z,101892.19
2023-02-27T02:39:55.236Z,101893.94
2023-02-27T02:42:27.204Z,101891.31
2023-02-27T02:45:08.628Z,101887.00
2023-02-27T02:47:58.499Z,101895.66
2023-02-27T02:50:47.288Z,101899.06
2023-02-27T02:53:38.030Z,101901.66
2023-02-27T02:56:08.347Z,101899.97
2023-02-27T02:58:48.015Z,101906.03
2023-02-27T03:01:24.159Z,101909.47
2023-02-27T03:03:57.264Z,101905.16
2023-02-27T03:06:29.549Z,101900.84
2023-02-27T03:09:02.193Z,101903.41
2023-02-27T03:11:31.810Z,101909.44
2023-02-27T03:14:08.353Z,101913.72
2023-02-27T03:16:47.829Z,101908.53
2023-02-27T03:19:22.244Z,101917.13
2023-02-27T03:21:59.775Z,101921.47
2023-02-27T03:24:38.050Z,101914.53
2023-02-27T03:27:05.851Z,101921.44
2023-02-27T03:29:43.991Z,101926.59
2023-02-27T03:32:17.343Z,101928.34
2023-02-27T03:34:45.005Z,101925.75
2023-02-27T03:37:27.687Z,101929.22
2023-02-27T03:40:25.973Z,101938.69
2023-02-27T03:43:02.371Z,101931.78
2023-02-27T03:45:45.556Z,101930.88
2023-02-27T03:48:12.703Z,101941.19
2023-02-27T03:50:39.876Z,101941.16
2023-02-27T03:53:13.059Z,101941.16
2023-02-27T03:55:44.357Z,101941.16
2023-02-27T03:58:11.544Z,101936.84
2023-02-27T04:00:38.792Z,101943.75
2023-02-27T04:03:06.207Z,101942.88
2023-02-27T04:05:36.204Z,101953.19
2023-02-27T04:08:38.122Z,101946.28
2023-02-27T04:11:14.362Z,101947.16
2023-02-27T04:13:51.274Z,101956.63
2023-02-27T04:16:45.873Z,101963.53
2023-02-27T04:19:31.721Z,101958.34
2023-02-27T04:22:27.412Z,101965.25
2023-02-27T04:24:54.420Z,101963.47
2023-02-27T04:27:27.466Z,101960.88
2023-02-27T04:29:54.944Z,101960.03
2023-02-27T04:32:36.031Z,101964.25
2023-02-27T04:35:11.479Z,101964.25
2023-02-27T04:37:52.186Z,101970.28
2023-02-27T04:40:23.795Z,101969.47
2023-02-27T04:42:54.942Z,101966.81
2023-02-27T04:45:24.566Z,101968.50
2023-02-27T04:47:54.587Z,101962.47
2023-02-27T04:50:35.972Z,101969.41
2023-02-27T04:53:09.153Z,101973.72
2023-02-27T04:55:41.573Z,101958.16
2023-02-27T04:58:18.979Z,101958.16
2023-02-27T05:00:50.977Z,101962.47
2023-02-27T05:03:23.990Z,101958.16
2023-02-27T05:05:53.788Z,101964.19
2023-02-27T05:08:22.245Z,101961.63
2023-02-27T05:10:53.940Z,101969.38
2023-02-27T05:13:26.447Z,101968.50
2023-02-27T05:16:02.375Z,101974.53
2023-02-27T05:18:29.666Z,101968.50
2023-02-27T05:25:02.652Z,101972.75
2023-02-27T05:27:33.972Z,101969.31
2023-02-27T05:30:19.997Z,101971.91
2023-02-27T05:32:58.734Z,101979.63
2023-02-27T05:35:57.721Z,101989.00
2023-02-27T05:38:40.577Z,101993.31
2023-02-27T05:41:15.823Z,101988.16
2023-02-27T05:44:15.776Z,101991.59
2023-02-27T05:46:54.972Z,102005.38
2023-02-27T05:49:37.452Z,101998.47
2023-02-27T05:52:35.457Z,101992.47
2023-02-27T05:55:25.200Z,101998.44
2023-02-27T05:58:10.811Z,102001.84
2023-02-27T06:00:52.057Z,102013.06
2023-02-27T06:03:23.483Z,102012.19
2023-02-27T06:05:53.333Z,102009.63
2023-02-27T06:08:22.068Z,102013.06
2023-02-27T06:10:52.315Z,102022.53
2023-02-27T06:13:22.907Z,102024.28
2023-02-27T06:15:50.917Z,102027.72
2023-02-27T06:18:24.538Z,102034.59
2023-02-27T06:20:55.289Z,102036.31
2023-02-27T06:23:25.161Z,102034.59
2023-02-27T06:25:54.679Z,102036.38
2023-02-27T06:28:23.509Z,102038.16
2023-02-27T06:30:55.177Z,102026.91
2023-02-27T06:33:26.228Z,102025.19
2023-02-27T06:36:07.827Z,102029.53
2023-02-27T06:38:54.799Z,102042.50
2023-02-27T06:44:51.578Z,102056.34
2023-02-27T06:47:18.841Z,102059.03
2023-02-27T06:49:46.064Z,102056.53
2023-02-27T06:52:13.286Z,102058.19
2023-02-27T06:54:40.554Z,102059.84
2023-02-27T06:57:07.730Z,102068.47
2023-02-27T06:59:35.146Z,102065.13
2023-02-27T07:02:02.621Z,102059.16
2023-02-27T07:04:29.984Z,102067.00
2023-02-27T07:07:34.392Z,102083.38
2023-02-27T07:09:46.253Z,102090.38
2023-02-27T07:12:13.608Z,102093.88
2023-02-27T07:14:40.968Z,102099.91
2023-02-27T07:17:08.428Z,102101.63
2023-02-27T07:19:37.113Z,102103.41
2023-02-27T07:22:29.207Z,102099.09
2023-02-27T07:24:56.501Z,102105.94
2023-02-27T07:27:23.672Z,102107.72
2023-02-27T07:29:50.964Z,102112.88
2023-02-27T07:32:18.467Z,102117.25
2023-02-27T07:34:45.828Z,102115.56
2023-02-27T07:37:13.052Z,102113.03
2023-02-27T07:39:40.249Z,102113.03
2023-02-27T07:42:07.443Z,102110.50
2023-02-27T07:44:35.142Z,102096.69
2023-02-27T07:47:02.447Z,102112.28
2023-02-27T07:49:29.683Z,102111.38
2023-02-27T07:51:56.901Z,102114.78
2023-02-27T07:54:24.210Z,102112.19
2023-02-27T07:56:51.453Z,102119.16
2023-02-27T07:59:18.917Z,102124.34
2023-02-27T08:01:46.186Z,102126.06
2023-02-27T08:04:13.413Z,102126.16
2023-02-27T08:06:40.738Z,102122.81
2023-02-27T08:09:08.339Z,102122.84
2023-02-27T08:11:35.591Z,102120.28
2023-02-27T08:14:03.299Z,102126.25
2023-02-27T08:16:31.739Z,102123.75
2023-02-27T08:19:00.468Z,102129.88
2023-02-27T08:21:28.721Z,102123.88
2023-02-27T08:23:56.054Z,102130.84
2023-02-27T08:26:23.743Z,102124.84
2023-02-27T08:28:51.182Z,102126.47
2023-02-27T08:31:18.538Z,102135.06
2023-02-27T08:33:45.698Z,102141.16
2023-02-27T08:36:13.178Z,102134.25
2023-02-27T08:38:40.337Z,102139.50
2023-02-27T08:41:07.528Z,102143.84
2023-02-27T08:43:34.782Z,102136.16
2023-02-27T08:46:02.487Z,102139.69
2023-02-27T08:48:29.727Z,102142.34
2023-02-27T08:50:58.005Z,102144.19
2023-02-27T08:53:25.854Z,102138.19
2023-02-27T08:55:53.376Z,102139.03
2023-02-27T08:58:20.984Z,102141.69
2023-02-27T09:00:50.655Z,102146.06
2023-02-27T09:03:17.988Z,102138.31
2023-02-27T09:05:45.287Z,102144.34
2023-02-27T09:08:12.566Z,102134.91
2023-02-27T09:10:39.875Z,102138.47
2023-02-27T09:13:08.507Z,102139.34
2023-02-27T09:15:35.780Z,102134.16
2023-02-27T09:18:05.470Z,102138.44
2023-02-27T09:20:35.968Z,102142.81
2023-02-27T09:23:03.928Z,102145.41
2023-02-27T09:25:31.374Z,102149.75
2023-02-27T09:27:58.728Z,102139.41
2023-02-27T09:30:26.019Z,102146.38
2023-02-27T09:32:53.241Z,102155.91
2023-02-27T09:35:20.519Z,102150.75
2023-02-27T09:37:49.517Z,102159.41
2023-02-27T09:40:29.148Z,102156.84
2023-02-27T09:43:10.201Z,102165.53
2023-02-27T09:45:39.354Z,102160.34
2023-02-27T09:48:26.950Z,102156.94
2023-02-27T09:50:54.255Z,102152.59
2023-02-27T09:53:32.455Z,102157.78
2023-02-27T09:56:10.830Z,102169.94
2023-02-27T09:58:44.943Z,102176.81
2023-02-27T10:01:22.029Z,102175.13
2023-02-27T10:03:58.515Z,102184.66
2023-02-27T10:06:28.870Z,102175.16
2023-02-27T10:09:14.469Z,102174.28
2023-02-27T10:11:56.924Z,102179.44
2023-02-27T10:14:50.606Z,102182.06
2023-02-27T10:17:28.601Z,102184.66
2023-02-27T10:20:00.481Z,102180.28
2023-02-27T10:22:35.112Z,102183.72
2023-02-27T10:25:37.618Z,102176.78
2023-02-27T10:28:19.511Z,102181.97
2023-02-27T10:31:18.176Z,102182.78
2023-02-27T10:34:03.764Z,102181.84
2023-02-27T10:36:37.541Z,102191.38
2023-02-27T10:39:09.117Z,102191.31
2023-02-27T10:41:43.736Z,102189.47
2023-02-27T10:44:29.292Z,102198.09
2023-02-27T10:47:01.054Z,102191.94
2023-02-27T10:49:31.246Z,102195.34
2023-02-27T10:52:18.887Z,102192.69
2023-02-27T10:54:47.062Z,102193.50
2023-02-27T10:57:41.267Z,102196.88
2023-02-27T11:00:56.803Z,102195.13
2023-02-27T11:03:31.851Z,102194.16
2023-02-27T11:06:25.587Z,102201.06
2023-02-27T11:09:13.005Z,102198.50
2023-02-27T11:11:40.524Z,102196.69
2023-02-27T11:14:47.213Z,102188.63
2023-02-27T11:17:25.100Z,102184.06
2023-02-27T11:19:52.394Z,102188.22
2023-02-27T11:22:28.248Z,102181.91
2023-02-27T11:25:20.598Z,102180.81
2023-02-27T11:27:55.053Z,102182.34
2023-02-27T11:30:32.132Z,102190.75
2023-02-27T11:33:13.673Z,102177.75
2023-02-27T11:35:57.263Z,102183.97
2023-02-27T11:38:36.695Z,102181.22
2023-02-27T11:41:13.429Z,102182.09
2023-02-27T11:43:59.985Z,102180.34
2023-02-27T11:47:09.098Z,102183.94
2023-02-27T11:50:04.542Z,102176.81
2023-02-27T11:52:58.160Z,102175.84
2023-02-27T11:55:28.674Z,102178.47
2023-02-27T11:58:05.897Z,102178.28
2023-02-27T12:00:46.804Z,102181.69
2023-02-27T12:03:32.034Z,102175.41
2023-02-27T12:06:04.919Z,102171.81
2023-02-27T12:08:42.848Z,102171.63
2023-02-27T12:11:14.694Z,102181.28
2023-02-27T12:13:46.273Z,102172.63
2023-02-27T12:16:23.124Z,102182.66
2023-02-27T12:19:03.241Z,102168.91
2023-02-27T12:22:02.209Z,102165.53
2023-02-27T12:24:47.734Z,102164.53
2023-02-27T12:27:33.456Z,102158.28
2023-02-27T12:30:44.307Z,102167.84
2023-02-27T12:33:42.498Z,102173.22
2023-02-27T12:36:11.418Z,102173.56
2023-02-27T12:38:39.065Z,102170.56
2023-02-27T12:41:12.175Z,102177.59
2023-02-27T12:43:51.328Z,102173.22
2023-02-27T12:46:41.102Z,102169.88
2023-02-27T12:49:31.668Z,102177.72
2023-02-27T12:52:38.047Z,102173.38
2023-02-27T12:55:11.055Z,102176.09
2023-02-27T12:58:11.743Z,102178.69
2023-02-27T13:00:55.128Z,102175.97
2023-02-27T13:03:34.543Z,102174.91
2023-02-27T13:06:14.397Z,102177.41
2023-02-27T13:09:22.185Z,102179.00
2023-02-27T13:12:23.506Z,102181.44
2023-02-27T13:15:12.577Z,102174.03
2023-02-27T13:17:47.516Z,102170.63
2023-02-27T13:20:30.263Z,102174.16
2023-02-27T13:23:32.055Z,102179.34
2023-02-27T13:26:01.044Z,102181.75
2023-02-27T13:28:29.301Z,102171.94
2023-02-27T13:31:20.661Z,102164.59
2023-02-27T13:33:48.817Z,102168.38
2023-02-27T13:36:24.193Z,102172.25
2023-02-27T13:38:53.706Z,102168.50
2023-02-27T13:41:20.851Z,102169.97
2023-02-27T13:43:53.303Z,102168.44
2023-02-27T13:46:30.447Z,102163.88
2023-02-27T13:49:20.057Z,102168.13
2023-02-27T13:51:56.590Z,102173.06
2023-02-27T13:54:29.556Z,102168.94
2023-02-27T13:56:59.487Z,102167.63
2023-02-27T13:59:37.562Z,102164.13
2023-02-27T14:02:07.068Z,102170.00
2023-02-27T14:04:37.052Z,102172.47
2023-02-27T14:07:10.820Z,102171.72
2023-02-27T14:09:40.606Z,102169.78
2023-02-27T14:12:28.901Z,102172.34
2023-02-27T14:14:59.597Z,102171.28
2023-02-27T14:17:36.561Z,102165.66
2023-02-27T14:20:06.582Z,102172.69
2023-02-27T14:23:11.236Z,102175.19
2023-02-27T14:25:41.204Z,102180.78
2023-02-27T14:28:35.943Z,102172.09
2023-02-27T14:31:44.833Z,102182.50
2023-02-27T14:34:15.871Z,102181.06
2023-02-27T14:36:51.449Z,102181.41
2023-02-27T14:39:35.881Z,102192.97
2023-02-27T14:42:36.924Z,102190.06
2023-02-27T14:45:04.849Z,102190.97
2023-02-27T14:47:38.394Z,102195.28
2023-02-27T14:50:08.445Z,102197.50
2023-02-27T14:52:43.236Z,102202.25
2023-02-27T14:55:18.016Z,102206.81
2023-02-27T14:58:01.077Z,102207.13
2023-02-27T15:00:40.311Z,102201.09
2023-02-27T15:03:22.276Z,102204.72
2023-02-27T15:05:51.790Z,102210.81
2023-02-27T15:08:22.336Z,102210.78
2023-02-27T15:10:51.175Z,102205.59
2023-02-27T15:13:28.560Z,102209.03
2023-02-27T15:16:21.195Z,102204.97
2023-02-27T15:18:50.845Z,102212.13
2023-02-27T15:21:21.557Z,102210.63
2023-02-27T15:24:03.740Z,102209.00
2023-02-27T15:26:37.097Z,102215.16
2023-02-27T15:29:05.694Z,102207.34
2023-02-27T15:31:33.074Z,102204.00
2023-02-27T15:34:02.143Z,102197.81
2023-02-27T15:36:34.004Z,102207.47
2023-02-27T15:39:17.473Z,102208.47
2023-02-27T15:41:48.484Z,102212.78
2023-02-27T15:44:25.023Z,102221.47
2023-02-27T15:46:52.989Z,102218.13
2023-02-27T15:49:21.973Z,102220.78
2023-02-27T15:51:58.405Z,102226.06
2023-02-27T15:54:25.584Z,102226.19
2023-02-27T15:56:53.733Z,102223.59
2023-02-27T15:59:20.888Z,102227.97
2023-02-27T16:01:49.740Z,102227.97
2023-02-27T16:04:23.463Z,102233.28
2023-02-27T16:06:58.538Z,102239.38
2023-02-27T16:09:30.390Z,102240.38
2023-02-27T16:12:39.673Z,102231.72
2023-02-27T16:15:34.607Z,102239.53
2023-02-27T16:18:07.818Z,102240.56
2023-02-27T16:20:45.024Z,102239.88
2023-02-27T16:23:22.061Z,102237.28
2023-02-27T16:26:43.030Z,102235.47
2023-02-27T16:29:21.663Z,102244.13
2023-02-27T16:31:51.886Z,102236.25
2023-02-27T16:34:42.747Z,102246.75
2023-02-27T16:37:27.674Z,102252.00
2023-02-27T16:39:54.835Z,102249.38
2023-02-27T16:42:22.124Z,102251.13
2023-02-27T16:44:50.335Z,102255.47
2023-02-27T16:47:17.537Z,102253.72
2023-02-27T16:49:46.300Z,102255.41
2023-02-27T16:52:13.555Z,102256.31
2023-02-27T16:54:40.699Z,102254.56
2023-02-27T16:57:09.079Z,102254.59
2023-02-27T16:59:40.382Z,102255.50
2023-02-27T17:02:13.055Z,102255.53
2023-02-27T17:04:43.903Z,102253.84
2023-02-27T17:07:15.746Z,102262.56
2023-02-27T17:09:44.152Z,102259.94
2023-02-27T17:12:11.645Z,102256.47
2023-02-27T17:14:38.901Z,102267.88
2023-02-27T17:17:06.686Z,102266.16
2023-02-27T17:19:33.993Z,102267.03
2023-02-27T17:22:01.116Z,102273.13
2023-02-27T17:24:28.305Z,102267.94
2023-02-27T17:26:55.859Z,102266.22
2023-02-27T17:29:23.859Z,102274.03
2023-02-27T17:31:51.091Z,102268.84
2023-02-27T17:34:18.463Z,102267.13
2023-02-27T17:36:45.642Z,102270.56
2023-02-27T17:39:14.173Z,102267.97
2023-02-27T17:41:43.665Z,102267.16
2023-02-27T17:44:11.691Z,102281.09
2023-02-27T17:46:39.512Z,102279.38
2023-02-27T17:49:06.862Z,102283.75
2023-02-27T17:51:34.028Z,102283.75
2023-02-27T17:54:05.322Z,102284.66
2023-02-27T17:56:32.451Z,102285.59
2023-02-27T17:58:59.696Z,102288.22
2023-02-27T18:01:27.822Z,102280.44
2023-02-27T18:03:55.176Z,102277.03
2023-02-27T18:06:23.126Z,102277.91
2023-02-27T18:08:50.355Z,102280.47
2023-02-27T18:11:19.778Z,102278.72
2023-02-27T18:13:47.873Z,102282.22
2023-02-27T18:16:15.324Z,102281.31
2023-02-27T18:18:43.126Z,102282.22
2023-02-27T18:21:16.100Z,102281.38
2023-02-27T18:23:44.000Z,102280.56
2023-02-27T18:26:28.402Z,102283.16
2023-02-27T18:29:02.128Z,102281.41
2023-02-27T18:31:32.506Z,102279.69
2023-02-27T18:34:00.379Z,102283.19
2023-02-27T18:36:29.320Z,102287.50
2023-02-27T18:38:57.369Z,102290.16
2023-02-27T18:41:24.505Z,102288.44
2023-02-27T18:43:51.922Z,102297.13
2023-02-27T18:46:19.583Z,102301.44
2023-02-27T18:48:47.152Z,102296.25
2023-02-27T18:51:15.635Z,102299.72
2023-02-27T18:53:45.758Z,102298.00
2023-02-27T18:56:14.611Z,102303.19
2023-02-27T18:58:42.448Z,102307.56
2023-02-27T19:01:23.685Z,102295.44
2023-02-27T19:03:51.209Z,102306.72
2023-02-27T19:06:18.376Z,102307.59
2023-02-27T19:08:46.121Z,102315.44
2023-02-27T19:11:33.032Z,102314.56
2023-02-27T19:14:04.730Z,102311.97
2023-02-27T19:16:32.428Z,102309.41
2023-02-27T19:19:01.155Z,102314.56
2023-02-27T19:21:28.975Z,102312.84
2023-02-27T19:23:56.277Z,102312.00
2023-02-27T19:26:24.317Z,102307.66
2023-02-27T19:28:55.167Z,102309.41
2023-02-27T19:31:24.116Z,102309.41
2023-02-27T19:33:51.435Z,102308.53
2023-02-27T19:36:20.784Z,102309.41
2023-02-27T19:38:48.181Z,102312.00
2023-02-27T19:41:18.943Z,102314.63
2023-02-27T19:43:46.668Z,102318.97
2023-02-27T19:46:19.280Z,102314.63
2023-02-27T19:48:46.787Z,102316.38
2023-02-27T19:51:14.826Z,102316.38
2023-02-27T19:53:45.231Z,102317.22
2023-02-27T19:56:15.473Z,102316.38
2023-02-27T19:58:42.774Z,102325.03
2023-02-27T20:01:10.132Z,102318.09
2023-02-27T20:03:38.074Z,102318.09
2023-02-27T20:06:05.762Z,102313.78
2023-02-27T20:08:33.652Z,102312.06
2023-02-27T20:11:03.384Z,102316.38
2023-02-27T20:13:31.246Z,102314.63
2023-02-27T20:16:00.646Z,102317.25
2023-02-27T20:18:29.886Z,102317.25
2023-02-27T20:21:04.417Z,102318.09
2023-02-27T20:23:32.822Z,102325.94
2023-02-27T20:26:00.366Z,102313.78
2023-02-27T20:28:31.779Z,102322.47
2023-02-27T20:30:58.893Z,102323.34
2023-02-27T20:33:26.062Z,102328.53
2023-02-27T20:35:53.179Z,102324.19
2023-02-27T20:38:22.587Z,102328.53
2023-02-27T20:40:49.733Z,102318.16
2023-02-27T20:43:16.847Z,102320.72
2023-02-27T20:45:43.941Z,102325.94
2023-02-27T20:48:11.090Z,102328.53
2023-02-27T20:50:38.316Z,102326.78
2023-02-27T20:53:05.466Z,102326.78
2023-02-27T20:55:32.681Z,102331.16
2023-02-27T20:57:59.929Z,102325.06
2023-02-27T21:00:27.727Z,102320.75
2023-02-27T21:02:54.810Z,102331.13
2023-02-27T21:05:22.488Z,102333.72
2023-02-27T21:07:50.614Z,102332.88
2023-02-27T21:10:18.090Z,102325.94
2023-02-27T21:12:45.217Z,102334.59
2023-02-27T21:15:12.802Z,102333.75
2023-02-27T21:17:40.093Z,102331.13
2023-02-27T21:20:08.348Z,102340.69
2023-02-27T21:22:35.525Z,102336.34
2023-02-27T21:25:02.772Z,102325.94
2023-02-27T21:27:30.102Z,102325.06
2023-02-27T21:29:57.237Z,102333.75
2023-02-27T21:32:24.369Z,102335.47
2023-02-27T21:34:51.701Z,102330.25
2023-02-27T21:37:19.337Z,102325.06
2023-02-27T21:39:52.360Z,102330.25
2023-02-27T21:42:19.617Z,102324.19
2023-02-27T21:44:46.756Z,102332.00
2023-02-27T21:47:13.910Z,102338.06
2023-02-27T21:49:41.088Z,102330.28
2023-02-27T21:52:08.876Z,102336.34
2023-02-27T21:54:36.066Z,102331.13
2023-02-27T21:57:03.366Z,102332.84
2023-02-27T21:59:30.960Z,102332.00
2023-02-27T22:01:58.407Z,102333.72
2023-02-27T22:04:25.794Z,102329.41
2023-02-27T22:06:53.124Z,102333.72
2023-02-27T22:09:20.531Z,102325.91
2023-02-27T22:11:48.235Z,102324.19
2023-02-27T22:14:15.456Z,102332.00
2023-02-27T22:16:42.859Z,102333.72
2023-02-27T22:19:12.320Z,102331.13
2023-02-27T22:21:39.790Z,102337.19
2023-02-27T22:24:07.496Z,102334.59
2023-02-27T22:26:34.921Z,102334.56
2023-02-27T22:29:02.180Z,102339.75
2023-02-27T22:31:32.279Z,102345.81
2023-02-27T22:34:04.578Z,102330.22
2023-02-27T22:36:32.740Z,102343.22
2023-02-27T22:38:59.931Z,102345.81
2023-02-27T22:41:32.698Z,102350.16
2023-02-27T22:44:02.154Z,102344.94
2023-02-27T22:46:36.488Z,102348.38
2023-02-27T22:49:06.158Z,102346.66
2023-02-27T22:51:33.375Z,102344.06
2023-02-27T22:54:03.019Z,102348.38
2023-02-27T22:56:30.664Z,102350.09
2023-02-27T22:58:57.917Z,102357.91
2023-02-27T23:01:28.716Z,102357.03
2023-02-27T23:03:57.839Z,102362.25
2023-02-27T23:06:30.881Z,102356.22
2023-02-27T23:08:58.660Z,102353.59
2023-02-27T23:11:26.250Z,102363.97
2023-02-27T23:13:53.600Z,102356.22
2023-02-27T23:16:20.930Z,102369.22
2023-02-27T23:18:54.004Z,102365.75
2023-02-27T23:21:24.142Z,102363.13
2023-02-27T23:23:53.770Z,102367.44
2023-02-27T23:26:21.310Z,102371.78
2023-02-27T23:28:48.448Z,102373.47
2023-02-27T23:31:15.923Z,102370.88
2023-02-27T23:33:43.056Z,102371.78
2023-02-27T23:36:10.663Z,102370.03
2023-02-27T23:38:37.755Z,102369.19
2023-02-27T23:41:09.446Z,102378.72
2023-02-27T23:43:36.536Z,102381.31
2023-02-27T23:46:14.672Z,102380.47
2023-02-27T23:48:42.501Z,102381.34
2023-02-27T23:51:11.064Z,102378.75
2023-02-27T23:53:40.050Z,102387.41
2023-02-27T23:56:21.629Z,102385.63
2023-02-27T23:58:56.682Z,102382.19
